Time;durP1;ratioP1;P1;durP2;ratioP2;P2;SDS_P1;SDS_P2;PMS_P1;PMS_P2;Temp;Humidity;BMP_temperature;BMP_pressure;BME280_temperature;BME280_humidity;BME280_pressure;Samples;Min_cycle;Max_cycle;Signal;HPM_P1;HPM_P2
2022/12/29 00:01:53;;;;;;;11.55;7.95;;;8.50;99.90;;;;;;5053307;28;20936;-79
2022/12/29 00:04:19;;;;;;;11.88;7.90;;;8.50;99.90;;;;;;5053492;28;20382;-79
2022/12/29 00:06:45;;;;;;;10.77;6.85;;;8.50;99.90;;;;;;5053454;28;20038;-79
2022/12/29 00:09:12;;;;;;;12.38;7.95;;;8.40;99.90;;;;;;5053560;28;20075;-79
2022/12/29 00:11:38;;;;;;;11.00;7.47;;;8.50;99.90;;;;;;5053428;28;20505;-79
2022/12/29 00:16:47;;;;;;;12.82;8.95;;;8.50;99.90;;;;;;5053133;28;20040;-79
2022/12/29 00:36:11;;;;;;;10.50;7.57;;;8.50;99.90;;;;;;5050813;28;20477;-79
2022/12/29 00:44:28;;;;;;;10.02;7.05;;;8.60;99.90;;;;;;5010865;28;20541;-79
2022/12/29 00:46:54;;;;;;;9.55;6.55;;;8.60;99.90;;;;;;5010674;28;20041;-79
2022/12/29 00:49:32;;;;;;;10.48;7.07;;;8.60;99.90;;;;;;5010415;28;20028;-79
2022/12/29 00:52:04;;;;;;;8.77;6.80;;;8.60;99.90;;;;;;5010530;28;20033;-79
2022/12/29 00:54:33;;;;;;;8.82;6.68;;;8.60;99.90;;;;;;5010665;28;20085;-79
2022/12/29 00:56:58;;;;;;;9.35;6.28;;;8.70;99.90;;;;;;5010109;28;20022;-79
2022/12/29 00:59:24;;;;;;;8.90;6.07;;;8.70;99.90;;;;;;5010699;28;20564;-79
2022/12/29 01:01:52;;;;;;;8.73;6.72;;;8.70;99.90;;;;;;5010404;28;20092;-79
2022/12/29 01:04:18;;;;;;;7.30;6.53;;;8.70;99.90;;;;;;5022567;28;20030;-79
2022/12/29 01:06:44;;;;;;;8.38;6.10;;;8.70;99.90;;;;;;5020711;28;20037;-79
2022/12/29 01:11:55;;;;;;;7.00;5.80;;;8.70;99.90;;;;;;5020833;28;20071;-79
2022/12/29 01:14:21;;;;;;;8.75;6.95;;;8.70;99.90;;;;;;5052512;28;20100;-79
2022/12/29 01:16:47;;;;;;;8.88;6.28;;;8.60;99.90;;;;;;5052368;28;20074;-79
2022/12/29 01:19:14;;;;;;;6.55;5.40;;;8.60;99.90;;;;;;5052036;28;20450;-79
2022/12/29 01:21:40;;;;;;;8.48;6.20;;;8.70;99.90;;;;;;5051032;28;20032;-79
2022/12/29 01:24:06;;;;;;;8.45;6.25;;;8.70;99.90;;;;;;5052303;28;20494;-79
2022/12/29 01:26:32;;;;;;;7.00;5.57;;;8.70;99.90;;;;;;5051980;28;20059;-79
2022/12/29 01:28:57;;;;;;;7.22;5.88;;;8.70;99.90;;;;;;5052011;28;20552;-79
2022/12/29 01:31:23;;;;;;;9.00;6.10;;;8.70;99.90;;;;;;5052340;28;20067;-79
2022/12/29 01:33:49;;;;;;;7.10;5.28;;;8.70;99.90;;;;;;5051831;28;20509;-79
2022/12/29 01:36:16;;;;;;;6.78;5.15;;;8.60;99.90;;;;;;5051976;28;20099;-79
2022/12/29 01:38:42;;;;;;;7.45;5.70;;;8.70;99.90;;;;;;5052308;28;20025;-79
2022/12/29 01:41:10;;;;;;;6.22;5.18;;;8.70;99.90;;;;;;5051646;28;20029;-79
2022/12/29 01:43:56;;;;;;;7.22;5.70;;;8.70;99.90;;;;;;5051985;28;20067;-79
2022/12/29 01:46:39;;;;;;;6.13;5.15;;;8.70;99.90;;;;;;5052173;28;20025;-79
2022/12/29 01:49:08;;;;;;;7.07;5.57;;;8.70;99.90;;;;;;5051718;28;20529;-79
2022/12/29 01:51:43;;;;;;;7.15;5.80;;;8.70;99.90;;;;;;5050689;28;20029;-79
2022/12/29 01:54:30;;;;;;;7.47;5.30;;;8.70;99.90;;;;;;5051827;28;20068;-79
2022/12/29 01:56:59;;;;;;;6.55;5.60;;;8.70;99.90;;;;;;5051896;28;20052;-79
2022/12/29 01:59:30;;;;;;;6.82;5.40;;;8.70;99.90;;;;;;5052341;28;20017;-79
2022/12/29 02:01:56;;;;;;;5.78;4.82;;;8.70;99.90;;;;;;5051999;28;20040;-79
2022/12/29 02:04:23;;;;;;;7.07;5.13;;;8.70;99.90;;;;;;5051367;28;20495;-79
2022/12/29 02:07:20;;;;;;;7.00;5.72;;;8.70;99.90;;;;;;5050478;28;20145;-79
2022/12/29 02:09:50;;;;;;;6.50;4.97;;;8.70;99.90;;;;;;5048261;28;20090;-79
2022/12/29 02:12:18;;;;;;;7.70;5.20;;;8.60;99.90;;;;;;5032440;28;20052;-79
2022/12/29 02:14:44;;;;;;;6.10;5.07;;;8.70;99.90;;;;;;5032239;28;20083;-79
2022/12/29 02:17:11;;;;;;;6.47;5.00;;;8.70;99.90;;;;;;5030484;28;20021;-79
2022/12/29 02:20:02;;;;;;;7.75;5.32;;;8.70;99.90;;;;;;5031574;28;20031;-79
2022/12/29 02:22:55;;;;;;;6.93;5.13;;;8.60;99.90;;;;;;5045570;28;20032;-79
2022/12/29 02:25:48;;;;;;;6.57;4.47;;;8.70;99.90;;;;;;5051707;28;20040;-79
2022/12/29 02:28:26;;;;;;;6.15;5.20;;;8.70;99.90;;;;;;5051227;28;20098;-79
2022/12/29 02:31:01;;;;;;;6.90;5.28;;;8.70;99.90;;;;;;5050308;28;20033;-79
2022/12/29 02:33:35;;;;;;;5.88;4.78;;;8.70;99.90;;;;;;5051388;28;20017;-79
2022/12/29 02:36:31;;;;;;;7.22;4.85;;;8.70;99.90;;;;;;5050172;28;20025;-79
2022/12/29 02:39:35;;;;;;;6.38;5.40;;;8.70;99.90;;;;;;5051296;28;20033;-79
2022/12/29 02:42:24;;;;;;;6.18;5.22;;;8.70;99.90;;;;;;5049953;28;20071;-79
2022/12/29 02:45:00;;;;;;;9.02;5.03;;;8.70;99.90;;;;;;5051689;28;20024;-79
2022/12/29 02:47:54;;;;;;;6.90;5.13;;;8.70;99.90;;;;;;5051343;28;20036;-79
2022/12/29 02:50:28;;;;;;;5.85;4.65;;;8.70;99.90;;;;;;5051136;28;20028;-79
2022/12/29 02:53:04;;;;;;;6.57;5.03;;;8.70;99.90;;;;;;5052544;28;20022;-79
2022/12/29 02:55:30;;;;;;;7.40;4.93;;;8.70;99.90;;;;;;5055256;28;20025;-79
2022/12/29 02:58:16;;;;;;;7.70;5.65;;;8.70;99.90;;;;;;5054725;28;20104;-79
2022/12/29 03:01:12;;;;;;;6.00;5.30;;;8.70;99.90;;;;;;5055070;28;20044;-79
2022/12/29 03:04:03;;;;;;;6.57;5.43;;;8.70;99.90;;;;;;5054600;28;20087;-79
2022/12/29 03:07:09;;;;;;;6.13;4.90;;;8.70;99.90;;;;;;5054527;28;20021;-79
2022/12/29 03:09:50;;;;;;;5.55;4.53;;;8.70;99.90;;;;;;5047160;28;20487;-79
2022/12/29 03:18:33;;;;;;;6.68;5.07;;;8.90;99.90;;;;;;5054146;28;20031;-78
2022/12/29 03:21:11;;;;;;;9.57;5.57;;;8.90;99.90;;;;;;5054277;28;20025;-79
2022/12/29 03:23:39;;;;;;;11.07;5.70;;;8.90;99.90;;;;;;5054588;28;20021;-79
2022/12/29 03:26:10;;;;;;;7.55;5.47;;;8.90;99.90;;;;;;5054634;28;20021;-79
2022/12/29 03:28:51;;;;;;;11.30;6.80;;;8.90;99.90;;;;;;5054042;28;20526;-79
2022/12/29 03:31:18;;;;;;;7.60;6.20;;;9.00;99.90;;;;;;5054615;28;20062;-79
2022/12/29 03:33:46;;;;;;;8.23;5.95;;;9.00;99.90;;;;;;5054213;28;20021;-79
2022/12/29 03:36:18;;;;;;;9.88;6.43;;;8.90;99.90;;;;;;5053957;28;20040;-79
2022/12/29 03:38:50;;;;;;;8.05;5.90;;;9.00;99.90;;;;;;5054333;28;20045;-79
2022/12/29 03:41:23;;;;;;;7.60;5.22;;;9.00;99.90;;;;;;5054311;28;20028;-79
2022/12/29 03:43:49;;;;;;;9.73;5.75;;;8.90;99.90;;;;;;5054022;28;20017;-79
2022/12/29 03:46:15;;;;;;;9.63;6.22;;;9.10;99.90;;;;;;5052761;28;20493;-79
2022/12/29 03:48:40;;;;;;;6.63;5.90;;;9.00;99.90;;;;;;5053761;28;20099;-79
2022/12/29 03:51:06;;;;;;;7.00;5.53;;;9.00;99.90;;;;;;5054046;28;20495;-79
2022/12/29 03:53:32;;;;;;;7.50;5.45;;;9.00;99.90;;;;;;5053884;28;20032;-79
2022/12/29 03:55:57;;;;;;;6.85;5.57;;;9.00;99.90;;;;;;5054049;28;20031;-79
2022/12/29 03:58:23;;;;;;;6.00;5.13;;;9.00;99.90;;;;;;5052309;28;20025;-79
2022/12/29 04:00:49;;;;;;;7.82;5.57;;;9.00;99.90;;;;;;5052479;28;20116;-79
2022/12/29 04:03:14;;;;;;;5.72;5.07;;;9.00;99.90;;;;;;5052119;28;20071;-79
2022/12/29 04:05:40;;;;;;;5.00;4.47;;;9.00;99.90;;;;;;5053527;28;20491;-79
2022/12/29 04:08:05;;;;;;;5.50;4.72;;;9.00;99.90;;;;;;5052190;28;20566;-79
2022/12/29 04:10:31;;;;;;;5.47;4.63;;;9.00;99.90;;;;;;5053834;28;20522;-79
2022/12/29 04:12:57;;;;;;;5.47;4.78;;;9.00;99.90;;;;;;5053063;28;20029;-79
2022/12/29 04:15:24;;;;;;;5.65;4.60;;;9.10;99.90;;;;;;5053861;28;20033;-79
2022/12/29 04:17:49;;;;;;;6.32;5.20;;;9.00;99.90;;;;;;5052002;28;20032;-79
2022/12/29 04:23:04;;;;;;;6.57;5.20;;;9.10;99.90;;;;;;5053325;28;20031;-79
2022/12/29 04:25:31;;;;;;;6.95;5.50;;;9.10;99.90;;;;;;5051864;28;20052;-79
2022/12/29 04:27:57;;;;;;;6.97;5.40;;;9.10;99.90;;;;;;5051649;28;20048;-79
2022/12/29 04:30:23;;;;;;;10.98;6.22;;;9.20;99.90;;;;;;5053191;28;20040;-79
2022/12/29 04:32:49;;;;;;;10.57;5.75;;;9.10;99.90;;;;;;5053123;28;20474;-79
2022/12/29 04:35:14;;;;;;;8.23;6.30;;;9.20;99.90;;;;;;5052685;28;20029;-79
2022/12/29 04:37:40;;;;;;;12.18;7.22;;;9.20;99.90;;;;;;5052753;28;20074;-79
2022/12/29 04:40:06;;;;;;;8.80;6.95;;;9.20;99.90;;;;;;5053258;28;20024;-79
2022/12/29 04:42:32;;;;;;;9.88;7.78;;;9.20;99.90;;;;;;5051357;28;20021;-79
2022/12/29 04:44:58;;;;;;;8.93;6.65;;;9.20;99.90;;;;;;5052938;28;20534;-79
2022/12/29 04:47:23;;;;;;;9.05;7.13;;;9.20;99.90;;;;;;5053068;28;20545;-79
2022/12/29 04:49:49;;;;;;;9.90;6.63;;;9.20;99.90;;;;;;5052302;28;20552;-79
2022/12/29 04:52:15;;;;;;;7.32;6.63;;;9.20;99.90;;;;;;5068406;28;20483;-79
2022/12/29 04:54:40;;;;;;;7.90;6.45;;;9.20;99.90;;;;;;5052753;28;20029;-79
2022/12/29 04:57:06;;;;;;;9.20;6.28;;;9.30;99.90;;;;;;5052663;28;20498;-79
2022/12/29 04:59:31;;;;;;;7.95;5.82;;;9.30;99.90;;;;;;5052832;28;20029;-79
2022/12/29 05:01:57;;;;;;;7.60;6.13;;;9.30;99.90;;;;;;5052777;28;20116;-79
2022/12/29 05:04:23;;;;;;;7.47;5.93;;;9.30;99.90;;;;;;5051883;28;20071;-79
2022/12/29 05:06:49;;;;;;;8.48;6.43;;;9.30;99.90;;;;;;5052876;28;20060;-79
2022/12/29 05:09:15;;;;;;;7.95;6.68;;;9.30;99.90;;;;;;5052271;28;20061;-79
2022/12/29 05:11:41;;;;;;;8.55;6.57;;;9.30;99.90;;;;;;5052331;28;20475;-79
2022/12/29 05:14:06;;;;;;;10.60;6.68;;;9.30;99.90;;;;;;5051103;28;20032;-79
2022/12/29 05:16:32;;;;;;;8.35;5.82;;;9.30;99.90;;;;;;5052162;28;20075;-79
2022/12/29 05:18:58;;;;;;;6.80;5.82;;;9.30;99.90;;;;;;5051770;28;20490;-79
2022/12/29 05:21:24;;;;;;;7.00;6.05;;;9.30;99.90;;;;;;5052508;28;20057;-79
2022/12/29 05:23:49;;;;;;;9.00;6.05;;;9.30;99.90;;;;;;5052210;28;20033;-79
2022/12/29 05:26:15;;;;;;;8.02;6.18;;;9.30;99.90;;;;;;5052442;28;20025;-79
2022/12/29 05:28:40;;;;;;;8.70;6.35;;;9.30;99.90;;;;;;5050508;28;20053;-79
2022/12/29 05:31:06;;;;;;;7.10;5.72;;;9.20;99.90;;;;;;5052377;28;20081;-79
2022/12/29 05:33:32;;;;;;;8.15;5.75;;;9.20;99.90;;;;;;5051876;28;20024;-79
2022/12/29 05:36:04;;;;;;;8.10;5.95;;;9.20;99.90;;;;;;5052434;28;20021;-79
2022/12/29 05:38:29;;;;;;;7.68;6.07;;;9.20;99.90;;;;;;5047321;28;20017;-79
2022/12/29 05:40:55;;;;;;;8.15;5.90;;;9.30;99.90;;;;;;5032354;28;20021;-79
2022/12/29 05:43:21;;;;;;;7.97;6.70;;;9.30;99.90;;;;;;5047297;28;20033;-79
2022/12/29 05:45:49;;;;;;;6.53;5.50;;;9.30;99.90;;;;;;5032195;28;20018;-79
2022/12/29 05:48:15;;;;;;;6.80;5.43;;;9.30;99.90;;;;;;5032064;28;20071;-79
2022/12/29 05:50:41;;;;;;;9.65;6.30;;;9.30;99.90;;;;;;5032139;28;20044;-79
2022/12/29 05:53:06;;;;;;;7.80;6.05;;;9.30;99.90;;;;;;5032178;28;20018;-79
2022/12/29 05:55:32;;;;;;;7.22;5.55;;;9.30;99.90;;;;;;5031749;28;20061;-79
2022/12/29 05:57:58;;;;;;;9.13;5.50;;;9.30;99.90;;;;;;5043609;28;20087;-79
2022/12/29 06:00:24;;;;;;;7.32;5.85;;;9.30;99.90;;;;;;5052134;28;20505;-79
2022/12/29 06:02:49;;;;;;;7.00;5.25;;;9.20;99.90;;;;;;5051892;28;20477;-79
2022/12/29 06:05:15;;;;;;;8.40;6.18;;;9.20;99.90;;;;;;5051474;28;20032;-79
2022/12/29 06:07:41;;;;;;;6.45;5.53;;;9.20;99.90;;;;;;5052124;28;20025;-79
2022/12/29 06:10:07;;;;;;;8.38;6.15;;;9.20;99.90;;;;;;5050296;28;20025;-79
2022/12/29 06:12:33;;;;;;;7.53;5.40;;;9.20;99.90;;;;;;5051624;28;20025;-80
2022/12/29 06:14:59;;;;;;;7.53;5.97;;;9.20;99.90;;;;;;5051413;28;20038;-79
2022/12/29 06:17:24;;;;;;;6.22;5.10;;;9.10;99.90;;;;;;5050581;28;20113;-79
2022/12/29 06:19:51;;;;;;;8.85;5.57;;;9.10;99.90;;;;;;5051579;28;20052;-79
2022/12/29 06:22:17;;;;;;;6.50;5.13;;;9.10;99.90;;;;;;5051331;28;20036;-79
2022/12/29 06:24:42;;;;;;;7.38;5.60;;;9.10;99.90;;;;;;5051682;28;20025;-79
2022/12/29 06:27:08;;;;;;;5.30;4.80;;;9.10;99.90;;;;;;5051941;28;20017;-79
2022/12/29 06:29:36;;;;;;;7.28;6.07;;;9.00;99.90;;;;;;5054652;28;20434;-79
2022/12/29 06:32:01;;;;;;;6.25;5.53;;;9.00;99.90;;;;;;5055433;28;20119;-79
2022/12/29 06:34:27;;;;;;;7.05;5.78;;;8.90;99.90;;;;;;5053764;28;20522;-79
2022/12/29 06:36:53;;;;;;;7.43;5.60;;;8.90;99.90;;;;;;5054007;28;20048;-79
2022/12/29 06:39:18;;;;;;;8.43;5.90;;;8.90;99.90;;;;;;5055049;28;20059;-79
2022/12/29 06:41:44;;;;;;;6.60;5.75;;;8.80;99.90;;;;;;5054873;28;20025;-79
2022/12/29 06:44:10;;;;;;;8.77;5.43;;;8.80;99.90;;;;;;5055063;28;20029;-79
2022/12/29 06:46:35;;;;;;;6.20;5.15;;;8.80;99.90;;;;;;5055378;28;20032;-79
2022/12/29 06:49:01;;;;;;;10.20;6.43;;;8.80;99.90;;;;;;5054848;28;20545;-79
2022/12/29 06:51:26;;;;;;;6.43;5.38;;;8.80;99.90;;;;;;5055163;28;20017;-79
2022/12/29 06:53:52;;;;;;;6.78;5.53;;;8.70;99.90;;;;;;5055061;28;20078;-79
2022/12/29 06:56:18;;;;;;;6.35;5.38;;;8.70;99.90;;;;;;5054418;28;20025;-79
2022/12/29 06:58:43;;;;;;;6.38;5.13;;;8.70;99.90;;;;;;5054762;28;20476;-79
2022/12/29 07:01:09;;;;;;;6.60;5.75;;;8.70;99.90;;;;;;5054952;28;20383;-79
2022/12/29 07:03:35;;;;;;;7.22;5.85;;;8.80;99.90;;;;;;5053339;28;20025;-79
2022/12/29 07:06:00;;;;;;;8.88;5.95;;;8.80;99.90;;;;;;5054678;28;20013;-79
2022/12/29 07:08:26;;;;;;;5.30;4.72;;;8.70;99.90;;;;;;5054915;28;20527;-79
2022/12/29 07:10:52;;;;;;;7.35;6.05;;;8.70;99.90;;;;;;5054429;28;20074;-79
2022/12/29 07:13:18;;;;;;;6.88;6.03;;;8.50;99.90;;;;;;5053015;28;20032;-79
2022/12/29 07:15:43;;;;;;;7.45;5.78;;;8.60;99.90;;;;;;5054562;28;20052;-79
2022/12/29 07:18:09;;;;;;;8.80;5.80;;;8.60;99.90;;;;;;5053385;28;20502;-79
2022/12/29 07:20:35;;;;;;;6.93;5.50;;;8.70;99.90;;;;;;5054436;28;20609;-79
2022/12/29 07:23:00;;;;;;;8.23;6.22;;;8.60;99.90;;;;;;5054346;28;20032;-79
2022/12/29 07:25:26;;;;;;;8.18;5.65;;;8.60;99.90;;;;;;5054579;28;20025;-79
2022/12/29 07:27:52;;;;;;;8.88;5.88;;;8.50;99.90;;;;;;5054067;28;20041;-79
2022/12/29 07:30:17;;;;;;;8.77;5.55;;;8.50;99.90;;;;;;5054254;28;20116;-79
2022/12/29 07:32:43;;;;;;;7.80;6.10;;;8.40;99.90;;;;;;5054554;28;20033;-79
2022/12/29 07:35:09;;;;;;;8.65;6.22;;;8.50;99.90;;;;;;5053907;28;20522;-79
2022/12/29 07:37:35;;;;;;;8.07;6.20;;;8.50;99.90;;;;;;5054393;28;20013;-79
2022/12/29 07:40:03;;;;;;;8.30;6.43;;;8.50;99.90;;;;;;5053787;28;20025;-79
2022/12/29 07:42:28;;;;;;;8.15;6.60;;;8.60;99.90;;;;;;5053696;28;20024;-79
2022/12/29 07:44:54;;;;;;;9.68;6.70;;;8.70;99.90;;;;;;5053941;28;20510;-79
2022/12/29 07:47:20;;;;;;;8.27;6.78;;;8.70;99.90;;;;;;5053906;28;20429;-79
2022/12/29 07:49:45;;;;;;;13.85;8.35;;;8.70;99.90;;;;;;5053585;28;20498;-79
2022/12/29 07:52:12;;;;;;;13.30;9.27;;;8.70;99.90;;;;;;5053979;28;20542;-79
2022/12/29 07:54:38;;;;;;;15.75;10.00;;;8.70;99.90;;;;;;5054071;28;20021;-79
2022/12/29 07:57:04;;;;;;;12.95;9.32;;;8.80;99.90;;;;;;5053256;28;20090;-79
2022/12/29 07:59:30;;;;;;;13.43;8.75;;;8.90;99.90;;;;;;5054116;28;20031;-79
2022/12/29 08:01:56;;;;;;;13.18;8.90;;;8.90;99.90;;;;;;5053613;28;20025;-79
2022/12/29 08:04:21;;;;;;;11.18;8.45;;;8.90;99.90;;;;;;5053316;28;20025;-79
2022/12/29 08:06:47;;;;;;;12.27;8.27;;;9.00;99.90;;;;;;5053988;28;20426;-79
2022/12/29 08:09:13;;;;;;;13.63;8.98;;;9.00;99.90;;;;;;5053539;28;20029;-79
2022/12/29 08:11:40;;;;;;;10.25;8.02;;;9.00;99.90;;;;;;5053217;28;20031;-79
2022/12/29 08:14:06;;;;;;;10.88;8.35;;;9.00;99.90;;;;;;5053741;28;20099;-79
2022/12/29 08:16:32;;;;;;;10.55;8.10;;;9.00;99.90;;;;;;5053495;28;20475;-79
2022/12/29 08:18:58;;;;;;;11.95;8.40;;;9.00;99.90;;;;;;5053351;28;20075;-79
2022/12/29 08:21:25;;;;;;;10.75;7.10;;;9.10;99.90;;;;;;5053381;28;20552;-79
2022/12/29 08:23:50;;;;;;;9.18;7.47;;;9.20;99.90;;;;;;5053314;28;20032;-79
2022/12/29 08:26:16;;;;;;;8.82;7.47;;;9.30;99.90;;;;;;5052844;28;20037;-79
2022/12/29 08:28:41;;;;;;;10.02;6.90;;;9.50;99.90;;;;;;5053012;28;20045;-79
2022/12/29 08:31:11;;;;;;;13.15;7.68;;;9.50;99.90;;;;;;5053245;28;20033;-79
2022/12/29 08:33:37;;;;;;;9.02;7.43;;;9.60;99.90;;;;;;5052966;28;20032;-79
2022/12/29 08:36:04;;;;;;;7.97;6.60;;;9.70;99.90;;;;;;5052982;28;20029;-79
2022/12/29 08:38:30;;;;;;;10.80;7.15;;;9.80;99.90;;;;;;5048307;28;20033;-79
2022/12/29 08:40:57;;;;;;;9.95;6.30;;;9.90;99.90;;;;;;5032783;28;20379;-79
2022/12/29 08:43:23;;;;;;;8.13;6.32;;;10.00;99.90;;;;;;5033010;28;20557;-79
2022/12/29 08:45:49;;;;;;;9.00;6.80;;;9.90;99.90;;;;;;5048094;28;20065;-79
2022/12/29 08:48:18;;;;;;;9.65;7.35;;;10.00;99.90;;;;;;5033473;28;20524;-79
2022/12/29 08:50:44;;;;;;;8.43;7.15;;;10.00;99.90;;;;;;5030609;28;20033;-79
2022/12/29 08:53:09;;;;;;;8.60;6.95;;;10.10;99.90;;;;;;5032822;28;20022;-79
2022/12/29 08:55:35;;;;;;;9.45;6.57;;;10.20;99.90;;;;;;5031288;28;20034;-79
2022/12/29 08:58:01;;;;;;;9.98;7.05;;;10.20;99.90;;;;;;5044766;28;20056;-79
2022/12/29 09:00:27;;;;;;;9.48;7.40;;;10.30;99.90;;;;;;5052562;28;20025;-79
2022/12/29 09:02:52;;;;;;;7.97;6.55;;;10.30;99.90;;;;;;5052571;28;20582;-79
2022/12/29 09:05:18;;;;;;;10.48;6.50;;;10.40;99.90;;;;;;5052484;28;20502;-79
2022/12/29 09:07:44;;;;;;;8.63;6.35;;;10.70;99.90;;;;;;5052715;28;20017;-79
2022/12/29 09:10:09;;;;;;;9.10;6.47;;;11.50;99.90;;;;;;5052367;28;20490;-79
2022/12/29 09:12:35;;;;;;;8.45;6.45;;;12.70;99.90;;;;;;5052480;28;20096;-79
2022/12/29 09:15:01;;;;;;;7.20;5.97;;;13.30;99.90;;;;;;5052299;28;20056;-79
2022/12/29 09:17:45;;;;;;;9.55;7.18;;;13.10;99.90;;;;;;5052584;28;20488;-79
2022/12/29 09:20:18;;;;;;;9.48;6.78;;;12.50;99.90;;;;;;5052252;28;20028;-79
2022/12/29 09:22:45;;;;;;;8.93;6.85;;;11.80;99.90;;;;;;5052352;28;20025;-79
2022/12/29 09:25:11;;;;;;;7.78;6.50;;;11.40;99.90;;;;;;5052183;28;20066;-79
2022/12/29 09:27:37;;;;;;;10.50;6.70;;;11.30;99.90;;;;;;5052193;28;20409;-79
2022/12/29 09:30:06;;;;;;;11.25;6.82;;;11.20;99.90;;;;;;5052452;28;20060;-79
2022/12/29 09:32:32;;;;;;;9.65;7.40;;;11.10;99.90;;;;;;5052228;28;20067;-79
2022/12/29 09:34:57;;;;;;;11.82;7.95;;;11.10;99.90;;;;;;5051584;28;20553;-79
2022/12/29 09:37:23;;;;;;;9.32;7.70;;;11.00;99.90;;;;;;5050711;28;20111;-79
2022/12/29 09:39:49;;;;;;;9.50;7.90;;;11.00;99.90;;;;;;5051843;28;20533;-79
2022/12/29 09:42:35;;;;;;;12.02;7.65;;;10.90;99.90;;;;;;5050453;28;20098;-79
2022/12/29 09:45:23;;;;;;;11.63;7.82;;;10.90;99.90;;;;;;5051723;28;20013;-79
2022/12/29 09:47:49;;;;;;;9.48;7.45;;;10.90;99.90;;;;;;5052073;28;20025;-79
2022/12/29 09:50:32;;;;;;;9.23;7.07;;;10.90;99.90;;;;;;5051789;28;20048;-79
2022/12/29 09:53:04;;;;;;;9.40;7.22;;;10.80;99.90;;;;;;5067144;28;20033;-79
2022/12/29 09:55:38;;;;;;;;;;;10.90;99.90;;;;;;5052609;28;20121;-79
2022/12/29 09:58:13;;;;;;;11.48;7.63;;;10.70;99.90;;;;;;5051872;28;19911;-79
2022/12/29 10:01:13;;;;;;;9.68;7.03;;;10.80;99.90;;;;;;5050558;28;20120;-79
2022/12/29 10:03:51;;;;;;;9.30;7.00;;;10.80;99.90;;;;;;4984706;28;20083;-79
2022/12/29 10:06:25;;;;;;;8.05;7.25;;;10.80;99.90;;;;;;5013710;28;20085;-79
2022/12/29 10:09:11;;;;;;;9.63;6.75;;;10.90;99.90;;;;;;5013579;28;20034;-79
2022/12/29 10:11:49;;;;;;;10.55;6.72;;;10.90;99.90;;;;;;5013483;28;20032;-79
2022/12/29 10:14:29;;;;;;;8.82;6.50;;;11.10;99.90;;;;;;5013870;28;20037;-79
2022/12/29 10:17:21;;;;;;;7.07;6.35;;;11.20;99.90;;;;;;5013499;28;20169;-79
2022/12/29 10:19:49;;;;;;;;;;;11.30;99.90;;;;;;5014013;28;20033;-79
2022/12/29 10:22:29;;;;;;;12.95;7.78;;;11.50;99.90;;;;;;5001574;28;19906;-79
2022/12/29 10:24:56;;;;;;;11.50;7.60;;;11.50;99.90;;;;;;4994062;28;20061;-79
2022/12/29 10:27:23;;;;;;;13.38;7.65;;;11.50;99.90;;;;;;4993726;28;20520;-79
2022/12/29 10:29:55;;;;;;;11.70;7.63;;;11.60;99.90;;;;;;4993695;28;20512;-79
2022/12/29 10:32:38;;;;;;;;;;;11.70;99.90;;;;;;4994051;28;20022;-79
2022/12/29 10:35:15;;;;;;;14.27;9.02;;;11.80;99.90;;;;;;4993495;28;19929;-79
2022/12/29 10:38:26;;;;;;;11.70;8.00;;;11.70;99.90;;;;;;4993296;28;20125;-79
2022/12/29 10:41:08;;;;;;;10.68;8.43;;;11.70;99.90;;;;;;4964581;28;20097;-79
2022/12/29 10:43:57;;;;;;;11.43;8.30;;;11.70;99.90;;;;;;4993501;28;20112;-79
2022/12/29 10:46:32;;;;;;;8.65;6.90;;;11.70;99.90;;;;;;4993365;28;20069;-79
2022/12/29 10:48:57;;;;;;;9.07;7.40;;;11.70;99.90;;;;;;4993381;28;20062;-79
2022/12/29 10:51:39;;;;;;;11.07;7.65;;;11.70;99.90;;;;;;4993318;28;20073;-79
2022/12/29 10:54:19;;;;;;;11.43;7.50;;;11.70;99.90;;;;;;4993654;28;20019;-79
2022/12/29 10:57:05;;;;;;;9.32;7.70;;;11.80;99.90;;;;;;4978532;28;20027;-79
2022/12/29 10:59:33;;;;;;;10.05;7.03;;;11.80;99.90;;;;;;4996463;28;20060;-79
2022/12/29 11:02:14;;;;;;;10.00;7.55;;;11.80;99.90;;;;;;5012630;28;20029;-79
2022/12/29 11:04:49;;;;;;;11.85;7.85;;;11.90;99.90;;;;;;5012792;28;20042;-79
2022/12/29 11:07:20;;;;;;;9.35;7.18;;;11.90;99.90;;;;;;5012360;28;20096;-79
2022/12/29 11:09:46;;;;;;;10.33;7.30;;;12.00;99.90;;;;;;5012790;28;20058;-79
2022/12/29 11:12:32;;;;;;;9.75;7.63;;;12.00;99.90;;;;;;5012338;28;20025;-79
2022/12/29 11:15:08;;;;;;;11.80;7.55;;;12.00;99.90;;;;;;5011770;28;20034;-79
2022/12/29 11:18:16;;;;;;;9.63;7.13;;;12.10;99.90;;;;;;5053345;28;20036;-79
2022/12/29 11:20:42;;;;;;;13.07;8.50;;;12.30;99.90;;;;;;5012119;28;20044;-79
2022/12/29 11:23:33;;;;;;;13.32;7.95;;;12.50;99.90;;;;;;4993711;28;20038;-79
2022/12/29 11:26:05;;;;;;;;;;;12.60;99.90;;;;;;4993192;28;20037;-79
2022/12/29 11:28:31;;;;;;;9.85;8.18;;;12.70;99.90;;;;;;4992663;28;19949;-79
2022/12/29 11:31:02;;;;;;;12.70;8.27;;;13.00;99.90;;;;;;4976346;28;20038;-79
2022/12/29 11:33:29;;;;;;;9.80;7.03;;;13.00;99.90;;;;;;4992505;28;20081;-79
2022/12/29 11:36:01;;;;;;;13.10;8.30;;;12.90;99.90;;;;;;4975786;28;20666;-79
2022/12/29 11:38:39;;;;;;;9.43;7.55;;;12.90;99.90;;;;;;4976129;28;20027;-79
2022/12/29 11:41:06;;;;;;;11.43;7.75;;;13.00;99.90;;;;;;4992486;28;20053;-79
2022/12/29 11:43:37;;;;;;;9.48;7.40;;;13.00;99.90;;;;;;4992455;28;20141;-79
2022/12/29 11:46:03;;;;;;;9.43;7.50;;;12.90;99.90;;;;;;4992282;28;20054;-79
2022/12/29 11:48:37;;;;;;;10.10;7.47;;;13.00;99.90;;;;;;4991949;28;20034;-79
2022/12/29 11:51:03;;;;;;;11.63;7.43;;;13.00;99.90;;;;;;4992173;28;20033;-79
2022/12/29 11:53:38;;;;;;;10.27;7.50;;;13.00;99.90;;;;;;4992312;28;20150;-79
2022/12/29 11:56:09;;;;;;;10.38;7.00;;;13.10;99.90;;;;;;5022389;28;20025;-79
2022/12/29 11:58:37;;;;;;;8.20;6.43;;;13.10;99.90;;;;;;5053804;28;20060;-79
2022/12/29 12:01:10;;;;;;;8.65;6.43;;;13.10;99.90;;;;;;5053591;28;20036;-79
2022/12/29 12:03:40;;;;;;;8.98;7.05;;;13.30;99.90;;;;;;5052142;28;20040;-79
2022/12/29 12:06:11;;;;;;;9.20;7.07;;;13.30;99.90;;;;;;5053637;28;20147;-79
2022/12/29 12:08:53;;;;;;;8.75;6.57;;;13.30;99.90;;;;;;5052448;28;20029;-79
2022/12/29 12:11:26;;;;;;;10.73;6.78;;;13.50;99.90;;;;;;5053589;28;20033;-79
2022/12/29 12:14:12;;;;;;;12.00;8.20;;;13.60;99.90;;;;;;5053715;28;20021;-79
2022/12/29 12:16:43;;;;;;;11.23;7.10;;;13.80;99.90;;;;;;5053483;28;20024;-79
2022/12/29 12:19:15;;;;;;;;;;;13.80;99.90;;;;;;5053564;28;20044;-79
2022/12/29 12:21:43;;;;;;;12.07;7.50;;;13.80;99.90;;;;;;5051916;28;19905;-79
2022/12/29 12:24:41;;;;;;;10.73;7.57;;;13.70;99.90;;;;;;5052038;28;20029;-79
2022/12/29 12:27:14;;;;;;;10.45;7.00;;;13.70;99.90;;;;;;4975159;28;20045;-79
2022/12/29 12:29:57;;;;;;;10.30;7.43;;;13.50;99.90;;;;;;4991314;28;20046;-79
2022/12/29 12:32:34;;;;;;;7.88;6.32;;;13.60;99.90;;;;;;4991071;28;20042;-79
2022/12/29 12:35:01;;;;;;;8.07;6.30;;;13.60;99.90;;;;;;4991349;28;20651;-79
2022/12/29 12:37:38;;;;;;;7.72;5.70;;;13.80;99.90;;;;;;4974970;28;20117;-79
2022/12/29 12:40:34;;;;;;;7.97;5.70;;;13.80;99.90;;;;;;4991651;28;20141;-79
2022/12/29 12:43:06;;;;;;;8.05;6.07;;;13.90;99.90;;;;;;4974643;28;20081;-79
2022/12/29 12:45:35;;;;;;;7.03;5.78;;;14.00;99.90;;;;;;4991535;28;20038;-79
2022/12/29 12:48:13;;;;;;;7.75;5.95;;;14.00;99.90;;;;;;4990954;28;20088;-79
2022/12/29 12:51:08;;;;;;;10.57;6.88;;;14.00;99.90;;;;;;4991144;28;20074;-79
2022/12/29 12:54:10;;;;;;;9.05;5.85;;;14.00;99.90;;;;;;4952571;29;20038;-79
2022/12/29 12:57:00;;;;;;;9.85;4.95;;;14.00;99.90;;;;;;4952228;29;20040;-79
2022/12/29 12:59:32;;;;;;;7.65;5.45;;;14.00;99.90;;;;;;4933431;29;20042;-79
2022/12/29 13:02:28;;;;;;;7.28;5.10;;;13.90;99.90;;;;;;4932980;29;20063;-79
2022/12/29 13:05:02;;;;;;;7.22;5.25;;;13.90;99.90;;;;;;4986122;28;20038;-79
2022/12/29 13:07:33;;;;;;;5.85;4.70;;;13.80;99.90;;;;;;4990935;28;20095;-79
2022/12/29 13:10:20;;;;;;;7.47;5.30;;;13.80;99.90;;;;;;4990897;28;20038;-79
2022/12/29 13:13:14;;;;;;;8.82;5.82;;;13.70;99.90;;;;;;4990760;28;20081;-79
2022/12/29 13:15:51;;;;;;;6.32;5.05;;;13.70;99.90;;;;;;4990683;28;20031;-79
2022/12/29 13:18:31;;;;;;;7.72;5.70;;;13.70;99.90;;;;;;4971617;28;20034;-79
2022/12/29 13:20:59;;;;;;;7.15;4.93;;;13.70;99.90;;;;;;4990622;28;20034;-79
2022/12/29 13:23:48;;;;;;;5.25;4.72;;;13.70;99.90;;;;;;4974235;28;20041;-79
2022/12/29 13:26:39;;;;;;;5.88;5.07;;;13.70;99.90;;;;;;4990746;28;20030;-79
2022/12/29 13:29:19;;;;;;;6.25;4.50;;;13.70;99.90;;;;;;4990190;28;20054;-79
2022/12/29 13:31:50;;;;;;;5.57;4.38;;;13.80;99.90;;;;;;5027513;28;20492;-79
2022/12/29 13:34:32;;;;;;;6.18;4.90;;;13.80;99.90;;;;;;5031875;28;20017;-79
2022/12/29 13:37:14;;;;;;;5.53;4.82;;;13.90;99.90;;;;;;5031834;28;20479;-79
2022/12/29 13:39:45;;;;;;;9.23;4.85;;;14.00;99.90;;;;;;5030983;28;20021;-79
2022/12/29 13:42:12;;;;;;;5.60;4.25;;;14.10;99.90;;;;;;5030560;28;20038;-79
2022/12/29 13:44:54;;;;;;;6.55;4.68;;;14.00;99.90;;;;;;5030710;28;20029;-79
2022/12/29 13:47:35;;;;;;;5.15;4.22;;;14.00;99.90;;;;;;5032212;28;20056;-79
2022/12/29 13:50:04;;;;;;;5.20;4.40;;;13.90;99.90;;;;;;5031870;28;20616;-79
2022/12/29 13:52:39;;;;;;;5.43;4.40;;;13.90;99.90;;;;;;5030578;28;20483;-79